Terminal Aerodrome Forecast
Issued by NWS

Home | Current Version | Previous Version | Text Only | Print | Product List | Glossary On
Versions: 1 2 3 4 5 6 7 8 9 10 11 12
864
FTUS43 KICT 072321
TAFSLN
TAF
KSLN 072321Z 0800/0824 30022G29KT P6SM FEW250
     FM081600 33027G34KT P6SM FEW250
     FM081800 33032G39KT P6SM SKC=

USA.gov is the U.S. government's official web portal to all federal, state and local government web resources and services.